createdAt,value
2018-07-25T00:01:10.778Z,5.70
2018-07-25T00:02:10.723Z,5.60
2018-07-25T00:04:04.034Z,5.40
2018-07-25T00:05:03.960Z,6.10
2018-07-25T00:06:57.375Z,6.10
2018-07-25T00:07:57.311Z,5.90
2018-07-25T00:09:50.594Z,6.20
2018-07-25T00:10:50.540Z,6.50
2018-07-25T00:12:43.848Z,6.30
2018-07-25T00:13:43.774Z,6.50
2018-07-25T00:15:37.065Z,6.30
2018-07-25T00:16:37.014Z,6.30
2018-07-25T00:18:30.311Z,6.00
2018-07-25T00:19:30.238Z,5.70
2018-07-25T00:21:23.560Z,6.00
2018-07-25T00:22:23.472Z,6.00
2018-07-25T00:24:16.782Z,6.20
2018-07-25T00:25:16.708Z,6.20
2018-07-25T00:27:10.020Z,6.80
2018-07-25T00:28:09.944Z,6.70
2018-07-25T00:30:03.237Z,6.80
2018-07-25T00:31:03.180Z,6.20
2018-07-25T00:32:56.490Z,6.90
2018-07-25T00:33:56.414Z,6.70
2018-07-25T00:35:49.703Z,6.90
2018-07-25T00:36:49.647Z,7.00
2018-07-25T00:38:42.948Z,6.70
2018-07-25T00:39:42.877Z,7.00
2018-07-25T00:41:36.163Z,6.40
2018-07-25T00:42:36.107Z,6.60
2018-07-25T00:44:29.416Z,6.70
2018-07-25T00:45:29.341Z,6.50
2018-07-25T00:47:22.649Z,7.00
2018-07-25T00:48:22.575Z,7.20
2018-07-25T00:50:15.864Z,6.60
2018-07-25T00:51:15.809Z,6.70
2018-07-25T00:53:09.119Z,7.50
2018-07-25T00:54:09.047Z,6.70
2018-07-25T00:56:02.332Z,6.80
2018-07-25T00:57:02.277Z,6.90
2018-07-25T00:58:55.577Z,7.50
2018-07-25T00:59:55.501Z,6.70
2018-07-25T01:01:48.790Z,7.30
2018-07-25T01:02:48.735Z,6.80
2018-07-25T01:04:42.042Z,7.10
2018-07-25T01:05:41.969Z,6.90
2018-07-25T01:07:35.376Z,7.00
2018-07-25T01:08:35.301Z,7.30
2018-07-25T01:10:28.591Z,7.70
2018-07-25T01:11:28.534Z,7.60
2018-07-25T01:13:21.840Z,7.10
2018-07-25T01:14:21.767Z,7.50
2018-07-25T01:16:15.053Z,6.80
2018-07-25T01:17:14.996Z,7.10
2018-07-25T01:19:08.303Z,7.70
2018-07-25T01:20:08.228Z,8.20
2018-07-25T01:22:01.521Z,7.70
2018-07-25T01:23:01.461Z,7.50
2018-07-25T01:24:54.766Z,8.40
2018-07-25T01:25:54.691Z,7.50
2018-07-25T01:27:48.000Z,8.00
2018-07-25T01:28:47.921Z,7.80
2018-07-25T01:30:41.210Z,7.60
2018-07-25T01:31:41.152Z,7.10
2018-07-25T01:33:34.459Z,7.90
2018-07-25T01:34:34.384Z,8.00
2018-07-25T01:36:28.676Z,7.90
2018-07-25T01:37:28.617Z,8.40
2018-07-25T01:39:21.920Z,7.90
2018-07-25T01:40:21.844Z,7.30
2018-07-25T01:42:15.734Z,8.20
2018-07-25T01:43:15.074Z,8.00
2018-07-25T01:45:08.379Z,7.80
2018-07-25T01:46:08.303Z,7.90
2018-07-25T01:48:01.599Z,7.90
2018-07-25T01:49:01.524Z,8.10
2018-07-25T01:50:54.810Z,8.00
2018-07-25T01:51:54.756Z,8.10
2018-07-25T01:53:48.064Z,8.00
2018-07-25T01:54:47.987Z,7.40
2018-07-25T01:56:41.356Z,7.00
2018-07-25T01:57:41.303Z,7.40
2018-07-25T01:59:34.611Z,7.50
2018-07-25T02:00:34.528Z,7.40
2018-07-25T02:02:27.806Z,7.80
2018-07-25T02:03:27.758Z,7.50
2018-07-25T02:05:21.063Z,7.90
2018-07-25T02:06:20.986Z,7.50
2018-07-25T02:08:14.343Z,7.10
2018-07-25T02:09:14.209Z,7.30
2018-07-25T02:11:07.496Z,7.40
2018-07-25T02:12:07.439Z,7.20
2018-07-25T02:14:00.743Z,7.50
2018-07-25T02:15:00.669Z,7.50
2018-07-25T02:16:53.954Z,7.70
2018-07-25T02:17:53.894Z,7.60
2018-07-25T02:19:47.202Z,7.10
2018-07-25T02:20:47.122Z,7.20
2018-07-25T02:22:40.412Z,6.90
2018-07-25T02:23:40.351Z,8.10
2018-07-25T02:25:33.656Z,7.00
2018-07-25T02:26:33.580Z,6.90
2018-07-25T02:28:26.885Z,7.80
2018-07-25T02:29:26.810Z,7.30
2018-07-25T02:31:20.096Z,6.70
2018-07-25T02:32:20.039Z,6.80
2018-07-25T02:34:13.376Z,7.90
2018-07-25T02:35:13.299Z,7.00
2018-07-25T02:37:06.585Z,7.60
2018-07-25T02:38:06.526Z,7.50
2018-07-25T02:39:59.834Z,8.30
2018-07-25T02:40:59.756Z,7.50
2018-07-25T02:42:53.040Z,7.70
2018-07-25T02:43:53.032Z,7.80
2018-07-25T02:45:46.289Z,7.80
2018-07-25T02:46:46.212Z,7.50
2018-07-25T02:48:39.517Z,7.10
2018-07-25T02:49:39.442Z,7.30
2018-07-25T02:51:32.749Z,7.90
2018-07-25T02:52:32.669Z,7.80
2018-07-25T02:54:25.973Z,7.30
2018-07-25T02:55:25.894Z,7.30
2018-07-25T02:57:19.179Z,7.10
2018-07-25T02:58:19.122Z,7.00
2018-07-25T03:00:12.425Z,7.70
2018-07-25T03:01:12.351Z,7.40
2018-07-25T03:03:05.634Z,8.00
2018-07-25T03:04:05.576Z,7.30
2018-07-25T03:05:58.880Z,7.50
2018-07-25T03:06:58.802Z,7.10
2018-07-25T03:08:52.119Z,6.90
2018-07-25T03:09:52.036Z,7.60
2018-07-25T03:11:45.437Z,8.10
2018-07-25T03:12:45.296Z,8.40
2018-07-25T03:14:38.601Z,7.60
2018-07-25T03:15:38.522Z,7.60
2018-07-25T03:17:31.810Z,7.40
2018-07-25T03:18:31.756Z,7.10
2018-07-25T03:20:25.061Z,7.90
2018-07-25T03:21:24.981Z,7.80
2018-07-25T03:23:18.266Z,7.40
2018-07-25T03:24:18.209Z,7.60
2018-07-25T03:26:11.511Z,7.30
2018-07-25T03:27:11.433Z,6.70
2018-07-25T03:29:04.752Z,7.80
2018-07-25T03:30:04.662Z,7.60
2018-07-25T03:31:57.956Z,7.80
2018-07-25T03:32:57.885Z,8.30
2018-07-25T03:34:51.295Z,7.90
2018-07-25T03:35:51.115Z,7.60
2018-07-25T03:37:44.401Z,8.30
2018-07-25T03:38:44.343Z,7.30
2018-07-25T03:40:37.646Z,7.90
2018-07-25T03:41:37.569Z,7.90
2018-07-25T03:43:30.855Z,8.00
2018-07-25T03:44:30.816Z,8.50
2018-07-25T03:46:24.204Z,7.70
2018-07-25T03:47:24.024Z,8.00
2018-07-25T03:49:17.429Z,7.80
2018-07-25T03:50:17.295Z,8.40
2018-07-25T03:52:10.645Z,8.50
2018-07-25T03:53:10.522Z,8.80
2018-07-25T03:55:03.826Z,8.60
2018-07-25T03:56:03.748Z,8.20
2018-07-25T03:57:57.024Z,8.70
2018-07-25T03:58:56.967Z,8.30
2018-07-25T04:00:50.273Z,8.70
2018-07-25T04:01:50.253Z,8.40
2018-07-25T04:03:43.480Z,8.50
2018-07-25T04:04:43.424Z,9.10
2018-07-25T04:06:36.727Z,8.00
2018-07-25T04:07:36.651Z,8.50
2018-07-25T04:09:29.936Z,8.80
2018-07-25T04:10:29.878Z,8.90
2018-07-25T04:12:23.183Z,8.60
2018-07-25T04:13:23.105Z,8.10
2018-07-25T04:15:16.411Z,8.30
2018-07-25T04:16:16.333Z,8.50
2018-07-25T04:18:09.720Z,8.20
2018-07-25T04:19:09.552Z,8.60
2018-07-25T04:21:02.959Z,8.60
2018-07-25T04:22:02.780Z,8.20
2018-07-25T04:23:56.166Z,8.50
2018-07-25T04:24:56.008Z,8.70
2018-07-25T04:26:49.374Z,9.00
2018-07-25T04:27:49.296Z,8.70
2018-07-25T04:29:42.582Z,9.60
2018-07-25T04:30:42.526Z,9.50
2018-07-25T04:32:35.829Z,9.00
2018-07-25T04:33:35.754Z,9.00
2018-07-25T04:35:29.058Z,9.30
2018-07-25T04:36:28.980Z,8.90
2018-07-25T04:38:22.294Z,9.50
2018-07-25T04:39:22.209Z,10.00
2018-07-25T04:41:15.516Z,9.00
2018-07-25T04:42:15.445Z,9.40
2018-07-25T04:44:08.724Z,9.80
2018-07-25T04:45:08.668Z,9.30
2018-07-25T04:47:01.972Z,9.50
2018-07-25T04:48:01.894Z,10.20
2018-07-25T04:49:55.179Z,9.50
2018-07-25T04:50:55.121Z,9.60
2018-07-25T04:52:48.425Z,10.10
2018-07-25T04:53:48.349Z,9.90
2018-07-25T04:55:41.634Z,9.90
2018-07-25T04:56:41.575Z,9.80
2018-07-25T04:58:34.883Z,10.40
2018-07-25T04:59:34.806Z,10.30
2018-07-25T05:01:29.113Z,9.40
2018-07-25T05:02:29.033Z,9.60
2018-07-25T05:04:22.326Z,10.20
2018-07-25T05:05:22.260Z,10.10
2018-07-25T05:07:15.629Z,9.40
2018-07-25T05:08:15.489Z,9.50
2018-07-25T05:10:08.776Z,9.60
2018-07-25T05:11:08.717Z,10.30
2018-07-25T05:13:02.024Z,10.80
2018-07-25T05:14:01.946Z,10.70
2018-07-25T05:15:55.333Z,9.50
2018-07-25T05:16:55.175Z,9.80
2018-07-25T05:18:48.584Z,10.80
2018-07-25T05:19:48.395Z,9.90
2018-07-25T05:21:41.714Z,10.20
2018-07-25T05:22:41.623Z,10.80
2018-07-25T05:24:34.912Z,10.70
2018-07-25T05:25:34.855Z,10.30
2018-07-25T05:27:28.161Z,10.50
2018-07-25T05:28:28.085Z,10.30
2018-07-25T05:30:21.370Z,10.80
2018-07-25T05:31:21.314Z,10.70
2018-07-25T05:33:14.620Z,10.30
2018-07-25T05:34:14.544Z,10.50
2018-07-25T05:36:07.834Z,11.90
2018-07-25T05:37:07.774Z,10.90
2018-07-25T05:39:01.084Z,11.80
2018-07-25T05:40:01.005Z,11.50
2018-07-25T05:41:54.292Z,12.70
2018-07-25T05:42:54.234Z,12.10
2018-07-25T05:44:47.549Z,11.30
2018-07-25T05:45:47.465Z,11.00
2018-07-25T05:47:40.774Z,11.90
2018-07-25T05:48:40.696Z,12.10
2018-07-25T05:50:33.982Z,13.10
2018-07-25T05:51:33.925Z,12.70
2018-07-25T05:53:27.233Z,11.40
2018-07-25T05:54:27.157Z,11.00
2018-07-25T05:56:20.444Z,10.70
2018-07-25T05:57:20.387Z,11.30
2018-07-25T05:59:13.692Z,11.60
2018-07-25T06:00:13.617Z,11.30
2018-07-25T06:02:06.905Z,11.10
2018-07-25T06:03:06.918Z,10.90
2018-07-25T06:05:00.159Z,10.90
2018-07-25T06:06:00.127Z,11.00
2018-07-25T06:07:53.374Z,10.20
2018-07-25T06:08:53.316Z,10.70
2018-07-25T06:10:46.624Z,10.10
2018-07-25T06:11:46.597Z,11.60
2018-07-25T06:13:39.915Z,10.90
2018-07-25T06:14:39.781Z,12.30
2018-07-25T06:16:33.069Z,11.80
2018-07-25T06:17:33.014Z,11.10
2018-07-25T06:19:26.362Z,11.40
2018-07-25T06:20:26.285Z,11.50
2018-07-25T06:22:19.554Z,11.30
2018-07-25T06:23:19.497Z,11.30
2018-07-25T06:25:12.808Z,11.80
2018-07-25T06:26:12.731Z,11.10
2018-07-25T06:28:06.119Z,10.40
2018-07-25T06:29:05.954Z,10.90
2018-07-25T06:30:59.377Z,10.90
2018-07-25T06:31:59.301Z,10.60
2018-07-25T06:33:52.591Z,10.70
2018-07-25T06:34:52.559Z,10.90
2018-07-25T06:36:45.842Z,10.60
2018-07-25T06:37:45.768Z,11.10
2018-07-25T06:39:39.193Z,11.10
2018-07-25T06:40:39.006Z,11.10
2018-07-25T06:42:32.300Z,10.60
2018-07-25T06:43:32.266Z,10.50
2018-07-25T06:45:25.552Z,10.40
2018-07-25T06:46:25.484Z,10.70
2018-07-25T06:48:18.779Z,10.10
2018-07-25T06:49:18.728Z,10.10
2018-07-25T06:51:12.040Z,11.30
2018-07-25T06:52:11.971Z,11.30
2018-07-25T06:54:05.262Z,11.30
2018-07-25T06:55:05.208Z,11.30
2018-07-25T06:56:58.516Z,10.90
2018-07-25T06:57:58.451Z,11.10
2018-07-25T06:59:51.744Z,10.30
2018-07-25T07:00:51.696Z,10.40
2018-07-25T07:02:45.006Z,10.40
2018-07-25T07:03:44.937Z,10.20
2018-07-25T07:05:38.357Z,10.90
2018-07-25T07:06:38.218Z,10.60
2018-07-25T07:08:31.590Z,9.40
2018-07-25T07:09:31.438Z,9.40
2018-07-25T07:11:24.753Z,9.70
2018-07-25T07:12:24.689Z,9.00
2018-07-25T07:14:17.987Z,9.30
2018-07-25T07:15:17.989Z,9.80
2018-07-25T07:17:11.373Z,9.00
2018-07-25T07:18:11.312Z,9.20
2018-07-25T07:20:04.613Z,8.70
2018-07-25T07:21:04.568Z,8.70
2018-07-25T07:22:57.889Z,8.20
2018-07-25T07:23:57.835Z,8.20
2018-07-25T07:25:51.163Z,8.80
2018-07-25T07:26:51.082Z,8.40
2018-07-25T07:28:44.496Z,8.40
2018-07-25T07:29:44.338Z,8.80
2018-07-25T07:31:37.660Z,9.80
2018-07-25T07:32:37.596Z,8.90
2018-07-25T07:34:30.909Z,9.00
2018-07-25T07:35:30.863Z,8.50
2018-07-25T07:37:24.265Z,9.90
2018-07-25T07:38:24.120Z,9.90
2018-07-25T07:40:17.434Z,8.10
2018-07-25T07:41:17.374Z,8.50
2018-07-25T07:43:10.703Z,9.10
2018-07-25T07:44:10.643Z,9.40
2018-07-25T07:46:03.936Z,8.40
2018-07-25T07:47:03.892Z,8.90
2018-07-25T07:48:57.213Z,9.30
2018-07-25T07:49:57.151Z,8.90
2018-07-25T07:51:50.468Z,10.40
2018-07-25T07:52:50.404Z,10.50
2018-07-25T07:54:43.706Z,8.40
2018-07-25T07:55:43.662Z,7.70
2018-07-25T07:57:36.980Z,8.70
2018-07-25T07:58:36.918Z,10.10
2018-07-25T08:00:30.217Z,8.60
2018-07-25T08:01:30.172Z,8.50
2018-07-25T08:03:23.603Z,8.10
2018-07-25T08:04:23.429Z,7.90
2018-07-25T08:06:16.729Z,8.80
2018-07-25T08:07:16.684Z,7.80
2018-07-25T08:09:10.106Z,8.40
2018-07-25T08:10:09.938Z,8.10
2018-07-25T08:12:03.265Z,7.60
2018-07-25T08:13:03.189Z,7.40
2018-07-25T08:14:56.498Z,7.70
2018-07-25T08:15:56.452Z,7.40
2018-07-25T08:17:49.780Z,6.40
2018-07-25T08:18:49.703Z,6.90
2018-07-25T08:20:43.050Z,8.10
2018-07-25T08:21:42.954Z,8.00
2018-07-25T08:23:36.273Z,7.50
2018-07-25T08:24:36.204Z,6.70
2018-07-25T08:26:29.503Z,6.80
2018-07-25T08:27:29.456Z,7.20
2018-07-25T08:29:22.876Z,7.70
2018-07-25T08:30:22.706Z,7.30
2018-07-25T08:32:16.002Z,7.40
2018-07-25T08:33:15.956Z,7.60
2018-07-25T08:35:09.380Z,7.60
2018-07-25T08:36:09.314Z,7.30
2018-07-25T08:38:02.628Z,8.30
2018-07-25T08:39:02.561Z,7.80
2018-07-25T08:40:55.857Z,7.50
2018-07-25T08:41:55.808Z,7.20
2018-07-25T08:43:49.228Z,6.80
2018-07-25T08:44:49.056Z,6.80
2018-07-25T08:46:42.464Z,7.10
2018-07-25T08:47:42.303Z,7.50
2018-07-25T08:49:36.615Z,6.80
2018-07-25T08:50:36.549Z,6.90
2018-07-25T08:52:30.933Z,6.70
2018-07-25T08:53:30.799Z,5.90
2018-07-25T08:55:24.111Z,5.70
2018-07-25T08:56:24.047Z,5.50
2018-07-25T08:58:17.364Z,5.30
2018-07-25T08:59:17.315Z,5.30
2018-07-25T09:01:10.627Z,5.60
2018-07-25T09:02:10.563Z,6.20
2018-07-25T09:04:03.877Z,5.80
2018-07-25T09:05:03.810Z,5.30
2018-07-25T09:06:57.107Z,6.10
2018-07-25T09:07:57.060Z,5.80
2018-07-25T09:09:50.374Z,5.60
2018-07-25T09:10:50.308Z,5.60
2018-07-25T09:12:43.668Z,5.20
2018-07-25T09:13:43.556Z,5.30
2018-07-25T09:15:36.875Z,4.70
2018-07-25T09:16:36.810Z,5.90
2018-07-25T09:18:31.104Z,4.70
2018-07-25T09:19:31.058Z,4.90
2018-07-25T09:21:24.376Z,4.20
2018-07-25T09:22:24.309Z,4.30
2018-07-25T09:24:17.626Z,4.40
2018-07-25T09:25:17.646Z,4.00
2018-07-25T09:27:10.927Z,4.40
2018-07-25T09:28:10.881Z,4.10
2018-07-25T09:30:04.196Z,4.50
2018-07-25T09:31:04.132Z,4.20
2018-07-25T09:32:57.430Z,4.40
2018-07-25T09:33:57.394Z,4.60
2018-07-25T09:35:50.701Z,4.80
2018-07-25T09:36:50.633Z,4.70
2018-07-25T09:38:43.931Z,4.30
2018-07-25T09:39:43.887Z,4.10
2018-07-25T09:41:37.204Z,4.60
2018-07-25T09:42:37.140Z,4.20
2018-07-25T09:44:30.521Z,4.40
2018-07-25T09:45:30.401Z,4.70
2018-07-25T09:47:23.724Z,4.60
2018-07-25T09:48:23.682Z,5.10
2018-07-25T09:50:16.970Z,4.30
2018-07-25T09:51:16.907Z,5.80
2018-07-25T09:53:10.265Z,4.60
2018-07-25T09:54:10.168Z,5.00
2018-07-25T09:56:03.581Z,4.50
2018-07-25T09:57:03.418Z,4.80
2018-07-25T09:58:56.901Z,5.40
2018-07-25T09:59:56.671Z,5.20
2018-07-25T10:01:50.097Z,7.00
2018-07-25T10:02:49.931Z,5.00
2018-07-25T10:04:43.236Z,5.40
2018-07-25T10:05:43.190Z,4.90
2018-07-25T10:07:36.590Z,5.00
2018-07-25T10:08:36.444Z,5.20
2018-07-25T10:10:29.805Z,4.80
2018-07-25T10:11:29.709Z,4.40
2018-07-25T10:13:23.014Z,5.20
2018-07-25T10:14:22.963Z,4.70
2018-07-25T10:16:16.283Z,9.50
2018-07-25T10:17:16.223Z,12.20
2018-07-25T10:19:09.521Z,5.40
2018-07-25T10:20:09.477Z,4.80
2018-07-25T10:22:02.797Z,4.80
2018-07-25T10:23:02.759Z,5.10
2018-07-25T10:24:56.034Z,5.40
2018-07-25T10:25:55.991Z,5.60
2018-07-25T10:27:49.381Z,5.70
2018-07-25T10:28:49.321Z,5.10
2018-07-25T10:30:42.640Z,5.10
2018-07-25T10:31:42.594Z,4.70
2018-07-25T10:33:35.907Z,4.90
2018-07-25T10:34:35.839Z,4.90
2018-07-25T10:36:29.261Z,4.60
2018-07-25T10:37:29.097Z,5.00
2018-07-25T10:39:22.399Z,4.60
2018-07-25T10:40:22.355Z,5.30
2018-07-25T10:42:15.678Z,5.10
2018-07-25T10:43:15.614Z,5.00
2018-07-25T10:45:08.927Z,5.00
2018-07-25T10:46:08.883Z,5.80
2018-07-25T10:48:03.207Z,5.30
2018-07-25T10:49:03.143Z,4.80
2018-07-25T10:50:56.460Z,5.40
2018-07-25T10:51:56.409Z,5.20
2018-07-25T10:53:49.742Z,5.10
2018-07-25T10:54:49.678Z,4.80
2018-07-25T10:56:43.014Z,4.70
2018-07-25T10:57:42.948Z,5.00
2018-07-25T10:59:36.259Z,5.40
2018-07-25T11:00:36.214Z,5.10
2018-07-25T11:02:29.549Z,4.70
2018-07-25T11:03:29.489Z,5.00
2018-07-25T11:05:22.799Z,4.80
2018-07-25T11:06:22.759Z,4.60
2018-07-25T11:08:16.090Z,5.20
2018-07-25T11:09:16.028Z,4.80
2018-07-25T11:11:09.371Z,4.70
2018-07-25T11:12:09.318Z,5.20
2018-07-25T11:14:02.650Z,5.30
2018-07-25T11:15:02.587Z,4.80
2018-07-25T11:16:55.911Z,4.80
2018-07-25T11:17:55.866Z,4.50
2018-07-25T11:19:49.196Z,4.90
2018-07-25T11:20:49.133Z,4.60
2018-07-25T11:22:42.466Z,4.60
2018-07-25T11:23:42.402Z,4.80
2018-07-25T11:25:35.717Z,4.80
2018-07-25T11:26:35.670Z,4.60
2018-07-25T11:28:28.993Z,4.30
2018-07-25T11:29:28.929Z,4.40
2018-07-25T11:31:22.240Z,4.80
2018-07-25T11:32:22.205Z,4.70
2018-07-25T11:34:15.527Z,4.60
2018-07-25T11:35:15.465Z,4.20
2018-07-25T11:37:08.775Z,4.80
2018-07-25T11:38:08.775Z,4.50
2018-07-25T11:40:02.061Z,4.70
2018-07-25T11:41:01.995Z,4.70
2018-07-25T11:42:55.361Z,4.50
2018-07-25T11:43:55.316Z,4.60
2018-07-25T11:45:48.646Z,4.50
2018-07-25T11:46:48.579Z,4.40
2018-07-25T11:48:41.901Z,4.60
2018-07-25T11:49:41.837Z,4.70
2018-07-25T11:51:35.136Z,3.90
2018-07-25T11:52:35.091Z,4.10
2018-07-25T11:54:28.440Z,4.40
2018-07-25T11:55:28.381Z,4.50
2018-07-25T11:57:21.667Z,4.80
2018-07-25T11:58:21.619Z,4.40
2018-07-25T12:00:14.936Z,3.90
2018-07-25T12:01:14.879Z,4.40
2018-07-25T12:03:08.172Z,4.00
2018-07-25T12:04:08.122Z,4.40
2018-07-25T12:06:01.447Z,4.40
2018-07-25T12:08:55.679Z,4.90
2018-07-25T12:09:55.630Z,6.10
2018-07-25T12:11:48.960Z,4.60
2018-07-25T12:12:48.930Z,4.70
2018-07-25T12:14:42.215Z,4.20
2018-07-25T12:15:42.146Z,4.10
2018-07-25T12:17:35.449Z,5.10
2018-07-25T12:18:35.402Z,4.60
2018-07-25T12:20:28.727Z,4.30
2018-07-25T12:21:28.661Z,4.30
2018-07-25T12:23:21.967Z,4.90
2018-07-25T12:24:21.917Z,5.40
2018-07-25T12:26:15.234Z,4.50
2018-07-25T12:27:15.168Z,4.10
2018-07-25T12:29:08.464Z,4.30
2018-07-25T12:30:08.416Z,4.00
2018-07-25T12:32:01.782Z,4.20
2018-07-25T12:33:01.686Z,4.40
2018-07-25T12:34:55.002Z,4.40
2018-07-25T12:35:54.936Z,4.20
2018-07-25T12:37:48.232Z,4.00
2018-07-25T12:38:48.185Z,4.00
2018-07-25T12:40:41.502Z,6.60
2018-07-25T12:41:41.490Z,5.10
2018-07-25T12:43:34.837Z,4.70
2018-07-25T12:44:34.684Z,4.20
2018-07-25T12:46:27.999Z,3.90
2018-07-25T12:47:27.935Z,5.40
2018-07-25T12:49:21.338Z,6.20
2018-07-25T12:50:21.188Z,6.40
2018-07-25T12:52:14.610Z,4.10
2018-07-25T12:53:14.454Z,4.70
2018-07-25T12:55:07.737Z,5.50
2018-07-25T12:56:07.690Z,4.60
2018-07-25T12:58:01.008Z,5.00
2018-07-25T12:59:00.936Z,6.20
